Time;durP1;ratioP1;P1;durP2;ratioP2;P2;SDS_P1;SDS_P2;PMS_P1;PMS_P2;Temp;Humidity;BMP_temperature;BMP_pressure;BME280_temperature;BME280_humidity;BME280_pressure;Samples;Min_cycle;Max_cycle;Signal;HPM_P1;HPM_P2
2023/05/13 00:00:33;;;;;;;2.15;1.67;;;16.60;94.70;;;;;;6308821;22;20003;-79
2023/05/13 00:02:59;;;;;;;3.05;1.50;;;16.60;94.70;;;;;;6308634;22;20447;-79
2023/05/13 00:05:25;;;;;;;3.33;1.70;;;16.60;94.70;;;;;;6308164;22;20007;-79
2023/05/13 00:07:50;;;;;;;1.52;1.42;;;16.60;94.70;;;;;;6308774;22;19999;-79
2023/05/13 00:10:16;;;;;;;1.50;1.40;;;16.60;94.70;;;;;;6309255;22;19999;-79
2023/05/13 00:12:42;;;;;;;2.05;1.60;;;16.60;94.70;;;;;;6308830;22;20006;-79
2023/05/13 00:15:08;;;;;;;2.22;1.67;;;16.50;94.60;;;;;;6308646;22;20026;-78
2023/05/13 00:17:34;;;;;;;3.70;1.70;;;16.60;94.70;;;;;;6309253;22;20021;-78
2023/05/13 00:20:00;;;;;;;1.50;1.35;;;16.60;94.70;;;;;;6309109;22;20418;-78
2023/05/13 00:22:25;;;;;;;1.73;1.52;;;16.60;94.70;;;;;;6308562;22;20022;-78
2023/05/13 00:24:51;;;;;;;1.92;1.63;;;16.60;94.60;;;;;;6309032;22;20062;-79
2023/05/13 00:27:16;;;;;;;1.90;1.35;;;16.60;94.70;;;;;;6308239;22;20004;-79
2023/05/13 00:29:42;;;;;;;1.95;1.50;;;16.60;94.60;;;;;;6308821;22;20007;-78
2023/05/13 00:32:08;;;;;;;2.15;1.90;;;16.50;94.60;;;;;;6308244;22;20018;-79
2023/05/13 00:34:33;;;;;;;2.78;2.13;;;16.50;94.70;;;;;;6308535;22;19999;-79
2023/05/13 00:36:59;;;;;;;1.83;1.50;;;16.50;94.70;;;;;;6307962;22;20027;-79
2023/05/13 00:39:26;;;;;;;2.55;2.00;;;16.50;94.80;;;;;;6308617;22;20028;-78
2023/05/13 00:41:51;;;;;;;1.90;1.63;;;16.50;94.80;;;;;;6308591;22;20313;-79
2023/05/13 00:44:17;;;;;;;2.53;1.95;;;16.50;94.90;;;;;;6308314;22;20133;-79
2023/05/13 00:46:43;;;;;;;2.22;2.00;;;16.50;94.90;;;;;;6308000;22;20007;-78
2023/05/13 00:49:09;;;;;;;2.83;1.70;;;16.50;94.90;;;;;;6309194;22;19999;-78
2023/05/13 00:51:35;;;;;;;2.33;2.00;;;16.40;95.00;;;;;;6308340;22;20024;-78
2023/05/13 00:54:01;;;;;;;2.42;2.22;;;16.50;95.00;;;;;;6308353;22;20421;-78
2023/05/13 00:56:27;;;;;;;2.40;2.05;;;16.50;95.00;;;;;;6307979;22;20010;-77
2023/05/13 00:58:52;;;;;;;2.20;1.80;;;16.40;95.00;;;;;;6308494;22;19999;-79
2023/05/13 01:01:46;;;;;;;4.10;2.10;;;16.50;95.00;;;;;;6308367;22;20003;-79
2023/05/13 01:04:24;;;;;;;2.25;1.65;;;16.50;94.90;;;;;;6306852;22;20004;-79
2023/05/13 01:07:20;;;;;;;3.53;2.22;;;16.50;94.80;;;;;;6308391;22;20371;-79
2023/05/13 01:10:14;;;;;;;2.22;1.80;;;16.40;94.80;;;;;;6307228;22;19999;-79
2023/05/13 01:12:45;;;;;;;3.83;2.10;;;16.40;94.90;;;;;;6306676;22;20002;-78
2023/05/13 01:15:20;;;;;;;2.38;2.03;;;16.40;95.00;;;;;;6308021;22;19999;-78
2023/05/13 01:18:05;;;;;;;4.57;2.00;;;16.40;95.00;;;;;;6308625;22;20021;-76
2023/05/13 01:20:33;;;;;;;3.10;1.98;;;16.40;95.00;;;;;;6307898;22;20005;-75
2023/05/13 01:22:58;;;;;;;2.33;1.55;;;16.40;95.00;;;;;;6307223;22;20006;-75
2023/05/13 01:25:26;;;;;;;2.08;1.85;;;16.40;95.00;;;;;;6306635;22;20360;-75
2023/05/13 01:27:53;;;;;;;2.95;1.65;;;16.40;94.90;;;;;;6307390;22;20023;-76
2023/05/13 01:30:19;;;;;;;2.10;1.90;;;16.40;94.90;;;;;;6308232;22;20413;-76
2023/05/13 01:32:45;;;;;;;6.82;1.80;;;16.40;94.90;;;;;;6307994;22;20024;-76
2023/05/13 01:35:12;;;;;;;2.50;1.65;;;16.40;94.80;;;;;;6307306;22;20019;-76
2023/05/13 01:37:39;;;;;;;3.22;1.98;;;16.40;94.80;;;;;;6307838;22;20018;-76
2023/05/13 01:40:06;;;;;;;1.70;1.50;;;16.40;94.80;;;;;;6306619;22;20394;-76
2023/05/13 01:42:33;;;;;;;2.10;1.75;;;16.30;94.80;;;;;;6305943;22;20012;-76
2023/05/13 01:44:59;;;;;;;2.03;1.83;;;16.30;94.80;;;;;;6307552;22;19996;-76
2023/05/13 01:47:25;;;;;;;2.35;1.42;;;16.30;94.80;;;;;;6308044;22;20003;-76
2023/05/13 01:49:50;;;;;;;3.22;2.00;;;16.30;94.80;;;;;;6306930;22;20417;-76
2023/05/13 01:52:16;;;;;;;2.17;1.95;;;16.30;94.80;;;;;;6307564;22;20041;-76
2023/05/13 01:54:42;;;;;;;2.30;1.85;;;16.30;94.70;;;;;;6307847;22;19995;-76
2023/05/13 01:57:07;;;;;;;2.00;1.80;;;16.30;94.70;;;;;;6308285;22;20003;-76
2023/05/13 01:59:33;;;;;;;1.75;1.50;;;16.30;94.70;;;;;;6307316;22;20004;-75
2023/05/13 02:01:58;;;;;;;3.08;1.92;;;16.30;94.70;;;;;;6307725;22;19999;-75
2023/05/13 02:04:24;;;;;;;3.03;1.90;;;16.30;94.70;;;;;;6307270;22;19999;-75
2023/05/13 02:06:50;;;;;;;1.92;1.65;;;16.30;94.80;;;;;;6307261;22;20007;-75
2023/05/13 02:09:15;;;;;;;2.20;1.77;;;16.30;94.80;;;;;;6307316;22;20071;-75
2023/05/13 02:11:41;;;;;;;3.33;2.30;;;16.30;94.80;;;;;;6306786;22;20137;-77
2023/05/13 02:14:07;;;;;;;3.70;2.17;;;16.30;95.00;;;;;;6306050;22;20441;-77
2023/05/13 02:16:32;;;;;;;3.88;2.60;;;16.30;94.80;;;;;;6307733;22;20317;-76
2023/05/13 02:18:58;;;;;;;2.58;2.38;;;16.30;94.80;;;;;;6306924;22;20053;-76
2023/05/13 02:21:24;;;;;;;2.42;2.22;;;16.30;94.80;;;;;;6307140;22;20045;-76
2023/05/13 02:23:49;;;;;;;3.65;2.38;;;16.30;94.90;;;;;;6307076;22;20310;-77
2023/05/13 02:26:15;;;;;;;2.92;2.40;;;16.30;94.90;;;;;;6307542;22;19999;-76
2023/05/13 02:28:41;;;;;;;5.20;2.40;;;16.20;94.90;;;;;;6306763;22;19995;-76
2023/05/13 02:31:06;;;;;;;4.13;2.70;;;16.20;95.00;;;;;;6307802;22;20377;-75
2023/05/13 02:33:32;;;;;;;4.03;2.05;;;16.20;95.00;;;;;;6306259;22;20004;-76
2023/05/13 02:35:57;;;;;;;2.35;2.15;;;16.20;95.00;;;;;;6307131;22;20021;-76
2023/05/13 02:38:23;;;;;;;2.17;1.77;;;16.20;95.00;;;;;;6307134;22;20003;-75
2023/05/13 02:40:49;;;;;;;3.35;1.70;;;16.20;95.00;;;;;;6307587;22;20003;-75
2023/05/13 02:43:15;;;;;;;1.80;1.65;;;16.10;95.00;;;;;;6307072;22;19999;-75
2023/05/13 02:45:40;;;;;;;4.20;2.50;;;16.10;94.90;;;;;;6307212;22;20007;-75
2023/05/13 02:48:06;;;;;;;3.50;2.60;;;16.00;95.00;;;;;;6307176;22;20011;-75
2023/05/13 02:50:32;;;;;;;2.78;1.90;;;15.90;95.10;;;;;;6307389;22;19996;-75
2023/05/13 02:52:58;;;;;;;4.03;2.00;;;15.80;95.20;;;;;;6306899;22;20003;-75
2023/05/13 02:55:23;;;;;;;3.67;2.28;;;15.80;95.30;;;;;;6307188;22;20010;-76
2023/05/13 02:57:49;;;;;;;2.97;2.30;;;15.70;95.30;;;;;;6306713;22;19996;-75
2023/05/13 03:00:15;;;;;;;3.28;2.00;;;15.70;95.40;;;;;;6306582;22;20303;-75
2023/05/13 03:02:41;;;;;;;2.95;2.42;;;15.70;95.40;;;;;;6306384;22;19999;-76
2023/05/13 03:05:07;;;;;;;2.75;2.20;;;15.70;95.50;;;;;;6306719;22;20360;-76
2023/05/13 03:07:33;;;;;;;2.67;2.35;;;15.70;95.70;;;;;;6306875;22;20027;-76
2023/05/13 03:09:58;;;;;;;4.80;3.00;;;15.70;95.70;;;;;;6307240;22;19999;-76
2023/05/13 03:12:24;;;;;;;3.67;1.95;;;15.70;95.80;;;;;;6306905;22;19999;-76
2023/05/13 03:14:50;;;;;;;3.13;2.53;;;15.60;95.80;;;;;;6307036;22;20006;-76
2023/05/13 03:17:16;;;;;;;4.10;2.20;;;15.60;95.90;;;;;;6306762;22;20006;-76
2023/05/13 03:19:41;;;;;;;3.15;2.42;;;15.60;96.10;;;;;;6305727;22;20037;-76
2023/05/13 03:22:07;;;;;;;2.35;2.15;;;15.60;96.10;;;;;;6306673;22;20074;-76
2023/05/13 03:24:32;;;;;;;4.32;3.05;;;15.60;96.20;;;;;;6307347;22;20003;-76
2023/05/13 03:26:58;;;;;;;2.97;2.67;;;15.60;96.20;;;;;;6307053;22;20075;-76
2023/05/13 03:29:24;;;;;;;3.97;2.85;;;15.60;96.20;;;;;;6307622;22;20397;-77
2023/05/13 03:31:51;;;;;;;3.55;3.03;;;15.60;96.10;;;;;;6305171;22;19999;-77
2023/05/13 03:34:17;;;;;;;3.47;3.17;;;15.70;96.10;;;;;;6306625;22;19999;-77
2023/05/13 03:36:43;;;;;;;4.38;3.28;;;15.70;96.10;;;;;;6306517;22;20086;-78
2023/05/13 03:39:09;;;;;;;3.20;2.90;;;15.70;96.10;;;;;;6307384;22;20086;-77
2023/05/13 03:41:35;;;;;;;5.70;3.13;;;15.70;96.00;;;;;;6307633;22;20007;-76
2023/05/13 03:44:00;;;;;;;4.85;3.75;;;15.80;96.00;;;;;;6306956;22;20076;-76
2023/05/13 03:46:26;;;;;;;4.10;3.45;;;15.80;96.00;;;;;;6306941;22;20010;-76
2023/05/13 03:48:54;;;;;;;6.65;3.70;;;15.80;96.00;;;;;;6306729;22;20348;-77
2023/05/13 03:51:20;;;;;;;8.00;4.40;;;15.80;96.00;;;;;;6307172;22;19995;-77
2023/05/13 03:53:46;;;;;;;5.30;3.97;;;15.90;96.00;;;;;;6307174;22;19999;-77
2023/05/13 03:56:12;;;;;;;5.30;3.90;;;15.90;96.00;;;;;;6306931;22;20337;-77
2023/05/13 03:58:38;;;;;;;4.63;3.80;;;15.90;95.90;;;;;;6307038;22;20003;-76
2023/05/13 04:01:03;;;;;;;6.43;4.22;;;15.90;96.00;;;;;;6307048;22;20003;-76
2023/05/13 04:03:30;;;;;;;5.97;4.68;;;15.90;95.90;;;;;;6306610;22;20105;-76
2023/05/13 04:05:55;;;;;;;4.70;3.90;;;16.00;95.90;;;;;;6305874;22;19999;-76
2023/05/13 04:08:21;;;;;;;8.25;4.53;;;16.00;95.80;;;;;;6306725;22;20023;-76
2023/05/13 04:10:47;;;;;;;10.55;5.00;;;16.00;95.90;;;;;;6306839;22;19995;-76
2023/05/13 04:13:12;;;;;;;7.30;5.00;;;16.00;95.80;;;;;;6306297;22;20002;-76
2023/05/13 04:15:38;;;;;;;5.35;4.80;;;16.00;95.70;;;;;;6306163;22;19999;-76
2023/05/13 04:18:04;;;;;;;6.78;5.10;;;16.00;95.70;;;;;;6306082;22;20027;-76
2023/05/13 04:20:29;;;;;;;6.43;4.63;;;16.00;95.70;;;;;;6307117;22;20006;-76
2023/05/13 04:22:55;;;;;;;6.95;5.25;;;16.00;95.70;;;;;;6306383;22;20371;-76
2023/05/13 04:25:21;;;;;;;6.75;4.75;;;16.00;95.70;;;;;;6306090;22;20317;-76
2023/05/13 04:27:46;;;;;;;6.75;4.65;;;16.00;95.70;;;;;;6307118;22;20003;-76
2023/05/13 04:30:13;;;;;;;6.82;5.05;;;16.00;95.70;;;;;;6306799;22;20305;-76
2023/05/13 04:32:38;;;;;;;7.05;5.07;;;16.00;95.90;;;;;;6306392;22;20452;-75
2023/05/13 04:35:06;;;;;;;7.93;5.20;;;15.90;95.70;;;;;;6307757;22;20006;-76
2023/05/13 04:37:32;;;;;;;6.47;4.47;;;15.90;95.80;;;;;;6307930;22;20040;-76
2023/05/13 04:39:58;;;;;;;6.55;4.80;;;15.90;95.80;;;;;;6308864;22;20056;-76
2023/05/13 04:42:24;;;;;;;4.88;4.28;;;15.90;95.80;;;;;;6308232;22;20000;-76
2023/05/13 04:44:49;;;;;;;4.40;4.00;;;16.00;95.80;;;;;;6308422;22;20011;-76
2023/05/13 04:47:15;;;;;;;6.20;4.15;;;16.00;95.80;;;;;;6308508;22;20003;-76
2023/05/13 04:49:41;;;;;;;5.53;4.10;;;15.90;95.80;;;;;;6309142;22;19996;-76
2023/05/13 04:52:07;;;;;;;6.53;4.03;;;16.00;95.90;;;;;;6308127;22;20000;-76
2023/05/13 04:54:38;;;;;;;5.38;3.80;;;16.00;95.90;;;;;;6308263;22;20052;-76
2023/05/13 04:57:04;;;;;;;4.97;4.03;;;16.00;95.80;;;;;;6308560;22;20430;-76
2023/05/13 04:59:30;;;;;;;7.25;4.00;;;16.00;95.80;;;;;;6308700;22;20478;-75
2023/05/13 05:01:55;;;;;;;5.57;3.72;;;16.00;95.80;;;;;;6308196;22;19999;-76
2023/05/13 05:04:21;;;;;;;5.03;3.65;;;16.00;95.70;;;;;;6308252;22;20392;-76
2023/05/13 05:06:47;;;;;;;6.13;3.22;;;16.00;95.70;;;;;;6307759;22;20060;-77
2023/05/13 05:09:13;;;;;;;5.10;3.90;;;16.10;95.80;;;;;;6307282;22;20010;-76
2023/05/13 05:11:38;;;;;;;4.13;3.63;;;16.10;95.70;;;;;;6308393;22;20031;-78
2023/05/13 05:14:04;;;;;;;4.38;3.25;;;16.10;95.80;;;;;;6307778;22;20006;-80
2023/05/13 05:16:30;;;;;;;4.55;3.13;;;16.10;95.70;;;;;;6305944;22;20011;-78
2023/05/13 05:18:55;;;;;;;3.60;3.30;;;16.10;95.80;;;;;;6306501;22;20442;-78
2023/05/13 05:21:21;;;;;;;5.43;3.17;;;16.20;95.80;;;;;;6307326;22;20006;-78
2023/05/13 05:23:47;;;;;;;3.83;3.17;;;16.20;95.60;;;;;;6308645;22;20060;-79
2023/05/13 05:26:16;;;;;;;4.90;3.28;;;16.20;95.50;;;;;;6306207;22;20293;-79
2023/05/13 05:28:42;;;;;;;4.60;2.92;;;16.20;95.50;;;;;;6307974;22;20070;-79
2023/05/13 05:31:08;;;;;;;3.70;2.38;;;16.10;95.50;;;;;;6306033;22;20023;-78
2023/05/13 05:33:35;;;;;;;3.53;2.08;;;16.20;95.40;;;;;;6308364;22;20385;-78
2023/05/13 05:36:00;;;;;;;2.88;2.20;;;16.20;95.40;;;;;;6307630;22;20019;-79
2023/05/13 05:38:32;;;;;;;2.50;2.30;;;16.20;95.30;;;;;;6307719;22;20010;-78
2023/05/13 05:40:58;;;;;;;2.85;1.98;;;16.20;95.30;;;;;;6306969;22;20007;-78
2023/05/13 05:43:24;;;;;;;4.75;2.53;;;16.20;95.30;;;;;;6306620;22;20086;-79
2023/05/13 05:45:49;;;;;;;2.95;2.20;;;16.30;95.30;;;;;;6307622;22;20509;-79
2023/05/13 05:48:15;;;;;;;2.90;1.50;;;16.30;95.20;;;;;;6307971;22;20030;-79
2023/05/13 05:50:41;;;;;;;2.00;1.58;;;16.30;95.20;;;;;;6306029;22;20005;-79
2023/05/13 05:53:07;;;;;;;3.03;2.00;;;16.40;95.10;;;;;;6307404;22;20430;-78
2023/05/13 05:55:32;;;;;;;1.90;1.52;;;16.40;94.90;;;;;;6307240;22;20003;-79
2023/05/13 05:58:02;;;;;;;2.35;1.67;;;16.40;94.90;;;;;;6307659;22;20007;-79
2023/05/13 06:00:28;;;;;;;2.00;1.48;;;16.40;94.80;;;;;;6305739;22;20456;-79
2023/05/13 06:02:56;;;;;;;2.28;1.55;;;16.40;94.70;;;;;;6306860;22;20378;-79
2023/05/13 06:05:22;;;;;;;3.45;1.70;;;16.40;94.70;;;;;;6306467;22;20003;-79
2023/05/13 06:07:48;;;;;;;3.47;1.80;;;16.40;94.70;;;;;;6307384;22;20057;-79
2023/05/13 06:10:13;;;;;;;3.42;1.67;;;16.50;94.90;;;;;;6305761;22;19999;-78
2023/05/13 06:12:42;;;;;;;1.23;1.13;;;16.50;94.60;;;;;;6303086;22;20006;-78
2023/05/13 06:15:11;;;;;;;1.83;1.42;;;16.50;94.40;;;;;;6306204;22;20101;-79
2023/05/13 06:17:43;;;;;;;2.00;1.15;;;16.50;94.30;;;;;;6304472;22;20057;-79
2023/05/13 06:20:10;;;;;;;2.35;1.10;;;16.60;94.10;;;;;;6304020;22;20007;-76
2023/05/13 06:22:35;;;;;;;1.40;1.30;;;16.60;94.10;;;;;;6306436;22;20025;-76
2023/05/13 06:25:01;;;;;;;1.88;1.10;;;16.60;94.00;;;;;;6305081;22;20028;-76
2023/05/13 06:27:27;;;;;;;1.50;1.40;;;16.70;94.10;;;;;;6306270;22;20011;-76
2023/05/13 06:29:52;;;;;;;1.33;1.00;;;16.70;94.10;;;;;;6305185;22;20360;-76
2023/05/13 06:32:18;;;;;;;2.65;1.10;;;16.70;94.00;;;;;;6305492;22;20535;-77
2023/05/13 06:34:45;;;;;;;2.20;0.80;;;16.80;93.90;;;;;;6303655;22;20007;-76
2023/05/13 06:37:14;;;;;;;1.70;0.95;;;16.80;93.70;;;;;;6304214;22;20421;-75
2023/05/13 06:39:39;;;;;;;0.95;0.70;;;16.80;93.70;;;;;;6305908;22;20080;-75
2023/05/13 06:42:05;;;;;;;1.25;0.80;;;16.80;93.40;;;;;;6305265;22;20026;-75
2023/05/13 06:44:31;;;;;;;0.80;0.60;;;16.80;93.50;;;;;;6306832;22;20003;-79
2023/05/13 06:46:57;;;;;;;2.15;0.82;;;16.90;93.50;;;;;;6306282;22;20086;-81
2023/05/13 06:49:25;;;;;;;2.47;0.80;;;16.90;93.30;;;;;;6306203;22;20758;-79
2023/05/13 06:51:51;;;;;;;0.73;0.55;;;16.90;93.00;;;;;;6306753;22;20026;-79
2023/05/13 06:54:17;;;;;;;2.47;0.70;;;17.00;93.10;;;;;;6304764;22;20003;-79
2023/05/13 06:56:42;;;;;;;2.40;0.75;;;17.00;93.20;;;;;;6306913;22;20004;-79
2023/05/13 06:59:08;;;;;;;1.13;0.80;;;17.00;93.20;;;;;;6306122;22;20030;-80
2023/05/13 07:01:34;;;;;;;1.05;0.68;;;17.10;93.10;;;;;;6306388;22;20000;-80
2023/05/13 07:03:59;;;;;;;1.70;0.90;;;17.10;93.10;;;;;;6307051;22;20007;-79
2023/05/13 07:06:25;;;;;;;3.47;0.60;;;17.20;93.00;;;;;;6306060;22;20007;-79
2023/05/13 07:08:51;;;;;;;1.20;0.68;;;17.20;93.20;;;;;;6307039;22;20066;-80
2023/05/13 07:11:16;;;;;;;1.35;0.75;;;17.20;92.90;;;;;;6305042;22;20415;-76
2023/05/13 07:13:43;;;;;;;2.50;0.80;;;17.20;92.90;;;;;;6306487;22;20432;-76
2023/05/13 07:16:08;;;;;;;0.43;0.43;;;17.30;92.80;;;;;;6306721;22;20432;-76
2023/05/13 07:18:34;;;;;;;2.30;0.73;;;17.30;92.70;;;;;;6306665;22;20000;-76
2023/05/13 07:21:00;;;;;;;0.55;0.50;;;17.30;92.50;;;;;;6306806;22;20008;-76
2023/05/13 07:23:25;;;;;;;1.88;0.73;;;17.40;92.30;;;;;;6305444;22;20006;-76
2023/05/13 07:25:51;;;;;;;1.65;0.57;;;17.40;92.20;;;;;;6303038;22;20008;-76
2023/05/13 07:28:19;;;;;;;2.05;0.60;;;17.50;92.20;;;;;;6304244;22;19995;-76
2023/05/13 07:30:45;;;;;;;1.15;0.60;;;17.60;92.10;;;;;;6305200;22;19999;-76
2023/05/13 07:33:11;;;;;;;2.38;0.82;;;17.60;92.10;;;;;;6305372;22;20043;-76
2023/05/13 07:35:37;;;;;;;1.25;0.55;;;17.70;91.80;;;;;;6305241;22;20019;-76
2023/05/13 07:38:03;;;;;;;1.20;0.50;;;17.70;91.60;;;;;;6306054;22;20027;-76
2023/05/13 07:40:29;;;;;;;2.25;0.70;;;17.70;91.60;;;;;;6305453;22;20436;-79
2023/05/13 07:42:54;;;;;;;0.68;0.50;;;17.80;91.50;;;;;;6304164;22;20010;-79
2023/05/13 07:45:20;;;;;;;0.95;0.70;;;17.90;91.50;;;;;;6304885;22;19999;-76
2023/05/13 07:47:46;;;;;;;1.30;1.00;;;18.00;91.60;;;;;;6306491;22;20048;-79
2023/05/13 07:50:12;;;;;;;2.58;0.75;;;18.00;91.40;;;;;;6304567;22;20425;-76
2023/05/13 07:52:37;;;;;;;0.85;0.65;;;18.10;91.20;;;;;;6305332;22;20072;-76
2023/05/13 07:55:04;;;;;;;1.00;0.70;;;18.20;91.40;;;;;;6305000;22;19999;-76
2023/05/13 07:57:30;;;;;;;1.70;0.80;;;18.20;91.30;;;;;;6306713;22;20310;-76
2023/05/13 07:59:56;;;;;;;0.70;0.52;;;18.30;91.10;;;;;;6306393;22;19999;-75
2023/05/13 08:02:23;;;;;;;1.13;0.70;;;18.40;90.90;;;;;;6305841;22;20007;-75
2023/05/13 08:04:50;;;;;;;0.98;0.70;;;18.50;91.10;;;;;;6305359;22;20349;-76
2023/05/13 08:07:15;;;;;;;1.23;0.70;;;18.50;90.80;;;;;;6306022;22;20012;-76
2023/05/13 08:09:41;;;;;;;0.82;0.50;;;18.60;90.40;;;;;;6305884;22;20432;-75
2023/05/13 08:12:07;;;;;;;0.40;0.40;;;18.60;90.20;;;;;;6307745;22;20003;-76
2023/05/13 08:14:33;;;;;;;0.80;0.50;;;18.60;90.40;;;;;;6306653;22;20052;-76
2023/05/13 08:16:59;;;;;;;4.60;0.73;;;18.70;90.30;;;;;;6307941;22;20007;-76
2023/05/13 08:19:25;;;;;;;2.72;0.80;;;18.70;90.10;;;;;;6308088;22;20075;-76
2023/05/13 08:21:51;;;;;;;1.58;0.65;;;18.90;90.20;;;;;;6308833;22;20452;-76
2023/05/13 08:24:16;;;;;;;1.38;0.50;;;19.00;90.10;;;;;;6307712;22;20007;-77
2023/05/13 08:26:42;;;;;;;0.50;0.50;;;19.10;89.50;;;;;;6307754;22;19999;-76
2023/05/13 08:29:11;;;;;;;0.60;0.43;;;19.30;89.10;;;;;;6308353;22;20313;-76
2023/05/13 08:31:37;;;;;;;1.20;0.87;;;19.30;88.40;;;;;;6306339;22;20451;-76
2023/05/13 08:34:03;;;;;;;1.85;0.82;;;19.40;88.80;;;;;;6301745;22;20091;-77
2023/05/13 08:36:28;;;;;;;1.23;0.60;;;19.50;87.10;;;;;;6306190;22;20030;-77
2023/05/13 08:38:54;;;;;;;0.70;0.50;;;19.40;86.60;;;;;;6307841;22;19999;-76
2023/05/13 08:41:21;;;;;;;0.77;0.60;;;19.40;85.50;;;;;;6306168;22;20797;-76
2023/05/13 08:43:48;;;;;;;1.83;0.70;;;19.40;86.70;;;;;;6306046;22;20046;-76
2023/05/13 08:46:15;;;;;;;1.00;0.57;;;19.40;85.90;;;;;;6306525;22;20063;-76
2023/05/13 08:48:41;;;;;;;0.80;0.43;;;19.40;86.80;;;;;;6307346;22;20515;-76
2023/05/13 08:51:11;;;;;;;0.32;0.32;;;19.40;86.80;;;;;;6306418;22;20007;-76
2023/05/13 08:53:38;;;;;;;2.20;0.60;;;19.50;86.70;;;;;;6307731;22;20006;-77
2023/05/13 08:56:07;;;;;;;0.50;0.32;;;19.60;86.10;;;;;;6306056;22;20019;-77
2023/05/13 08:58:33;;;;;;;0.30;0.28;;;19.60;86.10;;;;;;6304760;22;20029;-76
2023/05/13 09:00:58;;;;;;;0.95;0.40;;;19.70;86.30;;;;;;6306337;22;20007;-77
2023/05/13 09:03:26;;;;;;;1.02;0.57;;;19.70;86.20;;;;;;6304918;22;20056;-80
2023/05/13 09:05:52;;;;;;;0.80;0.30;;;19.80;84.20;;;;;;6306904;22;20007;-77
2023/05/13 09:08:18;;;;;;;1.27;0.60;;;19.80;85.00;;;;;;6307731;22;20431;-80
2023/05/13 09:10:43;;;;;;;0.65;0.52;;;19.80;84.80;;;;;;6306300;22;20036;-80
2023/05/13 09:13:11;;;;;;;0.68;0.50;;;19.90;85.40;;;;;;6304390;22;20057;-80
2023/05/13 09:15:41;;;;;;;0.77;0.50;;;20.00;85.20;;;;;;6303675;22;20052;-80
2023/05/13 09:18:07;;;;;;;0.60;0.40;;;20.00;85.20;;;;;;6305480;22;20037;-80
2023/05/13 09:20:34;;;;;;;1.02;0.43;;;20.00;85.30;;;;;;6304673;22;19999;-77
2023/05/13 09:23:09;;;;;;;1.02;0.52;;;20.00;85.20;;;;;;6306714;22;20003;-77
2023/05/13 09:25:36;;;;;;;1.27;0.60;;;20.00;84.80;;;;;;6306093;22;20023;-77
2023/05/13 09:28:04;;;;;;;0.43;0.43;;;19.90;84.80;;;;;;6304202;22;20255;-78
2023/05/13 09:30:39;;;;;;;0.88;0.32;;;19.90;84.70;;;;;;6303302;22;19999;-77
2023/05/13 09:33:16;;;;;;;0.60;0.50;;;19.90;85.50;;;;;;6306196;22;20013;-77
2023/05/13 09:35:43;;;;;;;0.98;0.57;;;19.90;85.50;;;;;;6305643;22;20019;-77
2023/05/13 09:38:25;;;;;;;0.75;0.40;;;20.00;85.30;;;;;;6306455;22;20006;-77
2023/05/13 09:40:57;;;;;;;0.82;0.60;;;20.00;85.30;;;;;;6306359;22;20003;-77
2023/05/13 09:43:30;;;;;;;1.33;0.80;;;20.00;85.20;;;;;;6305384;22;19999;-77
2023/05/13 09:46:00;;;;;;;0.57;0.50;;;19.90;85.10;;;;;;6307455;22;20003;-77
2023/05/13 09:48:28;;;;;;;1.57;0.60;;;19.90;85.50;;;;;;6305869;22;20000;-77
2023/05/13 09:50:56;;;;;;;1.17;0.55;;;19.80;85.00;;;;;;6306939;22;20003;-78
2023/05/13 09:53:22;;;;;;;0.90;0.63;;;19.80;84.80;;;;;;6307742;22;20006;-77
2023/05/13 09:55:50;;;;;;;1.70;1.00;;;19.70;85.10;;;;;;6307544;22;20003;-77
2023/05/13 09:58:18;;;;;;;1.25;0.50;;;19.70;85.30;;;;;;6308504;22;19999;-77
2023/05/13 10:00:46;;;;;;;0.60;0.50;;;19.70;85.30;;;;;;6307055;22;20071;-77
2023/05/13 10:03:12;;;;;;;0.73;0.50;;;19.60;85.80;;;;;;6307261;22;20013;-77
2023/05/13 10:05:39;;;;;;;0.63;0.40;;;19.60;85.40;;;;;;6306830;22;20035;-77
2023/05/13 10:08:08;;;;;;;1.80;0.30;;;19.60;85.50;;;;;;6307551;22;20421;-77
2023/05/13 10:10:34;;;;;;;0.77;0.50;;;19.60;85.60;;;;;;6307051;22;20476;-82
2023/05/13 10:13:07;;;;;;;2.00;0.80;;;19.60;85.60;;;;;;6306794;22;20325;-82
2023/05/13 10:15:41;;;;;;;6.07;0.60;;;19.50;85.60;;;;;;6307096;22;20005;-82
2023/05/13 10:18:07;;;;;;;0.68;0.50;;;19.50;85.60;;;;;;6305599;22;20441;-81
2023/05/13 10:20:33;;;;;;;1.42;0.40;;;19.50;85.60;;;;;;6305476;22;20000;-82
2023/05/13 10:22:59;;;;;;;0.85;0.55;;;19.50;85.70;;;;;;6306374;22;20003;-81
2023/05/13 10:25:25;;;;;;;0.40;0.30;;;19.50;85.50;;;;;;6306578;22;20022;-81
2023/05/13 10:27:53;;;;;;;4.20;0.57;;;19.40;85.60;;;;;;6306219;22;20413;-81
2023/05/13 10:30:25;;;;;;;1.98;0.60;;;19.40;85.70;;;;;;6303401;22;20072;-81
2023/05/13 10:32:51;;;;;;;0.52;0.30;;;19.30;85.30;;;;;;6306397;22;20406;-81
2023/05/13 10:35:18;;;;;;;1.15;0.50;;;19.30;85.70;;;;;;6306809;22;20010;-82
2023/05/13 10:38:16;;;;;;;1.92;0.68;;;19.30;85.90;;;;;;6307352;22;20038;-82
2023/05/13 10:41:08;;;;;;;1.80;0.65;;;19.30;86.70;;;;;;6307024;22;20048;-82
2023/05/13 10:43:34;;;;;;;1.20;0.63;;;19.30;86.70;;;;;;6306758;22;20010;-82
2023/05/13 10:46:11;;;;;;;2.38;0.60;;;19.30;86.70;;;;;;6307834;22;20031;-82
2023/05/13 10:48:57;;;;;;;1.85;0.60;;;19.40;86.60;;;;;;6307134;22;20480;-85
2023/05/13 10:51:24;;;;;;;1.58;0.60;;;19.40;86.90;;;;;;6305982;22;20104;-83
2023/05/13 10:53:52;;;;;;;1.83;0.60;;;19.40;86.10;;;;;;6306665;22;20053;-89
2023/05/13 10:56:23;;;;;;;0.90;0.40;;;19.40;86.40;;;;;;6305313;22;20406;-82
2023/05/13 10:59:03;;;;;;;1.27;0.70;;;19.40;86.50;;;;;;6306922;22;20097;-82
2023/05/13 11:01:32;;;;;;;2.13;0.60;;;19.50;86.30;;;;;;6304730;22;20058;-82
2023/05/13 11:04:00;;;;;;;0.50;0.50;;;19.60;85.50;;;;;;6306891;22;20045;-82
2023/05/13 11:06:40;;;;;;;1.85;0.50;;;19.60;85.30;;;;;;6306624;22;19999;-81
2023/05/13 11:09:07;;;;;;;0.38;0.30;;;19.70;85.20;;;;;;6307523;22;20026;-82
2023/05/13 11:11:36;;;;;;;0.73;0.50;;;19.70;84.90;;;;;;6306867;22;20329;-80
2023/05/13 11:14:23;;;;;;;1.33;0.50;;;19.70;84.50;;;;;;6306182;22;20078;-81
2023/05/13 11:17:03;;;;;;;2.28;0.73;;;19.70;84.30;;;;;;6306313;22;20000;-81
2023/05/13 11:19:36;;;;;;;0.47;0.40;;;19.70;83.90;;;;;;6306702;22;20004;-81
2023/05/13 11:22:11;;;;;;;1.30;0.50;;;19.70;84.40;;;;;;6304708;22;20373;-81
2023/05/13 11:24:37;;;;;;;2.20;0.50;;;19.80;84.10;;;;;;6307089;22;20003;-82
2023/05/13 11:27:17;;;;;;;0.40;0.40;;;19.90;84.40;;;;;;6306528;22;20027;-81
2023/05/13 11:29:51;;;;;;;1.08;0.57;;;20.00;84.10;;;;;;6306737;22;20380;-82
2023/05/13 11:32:55;;;;;;;0.57;0.40;;;20.10;84.10;;;;;;6305361;22;20429;-82
2023/05/13 11:35:33;;;;;;;1.00;0.30;;;20.40;83.10;;;;;;6306005;22;19995;-81
2023/05/13 11:38:01;;;;;;;1.75;0.47;;;20.50;81.90;;;;;;6306035;22;20005;-81
2023/05/13 11:40:27;;;;;;;1.55;0.50;;;20.50;82.10;;;;;;6304428;22;20003;-81
2023/05/13 11:42:53;;;;;;;2.30;0.52;;;20.50;81.90;;;;;;6307437;22;20023;-81
2023/05/13 11:45:22;;;;;;;1.98;0.50;;;20.40;81.20;;;;;;6308400;22;20098;-81
2023/05/13 11:47:48;;;;;;;0.70;0.50;;;20.30;81.70;;;;;;6306430;22;20082;-81
2023/05/13 11:50:20;;;;;;;1.10;0.40;;;20.20;82.30;;;;;;6305246;22;20455;-80
2023/05/13 11:52:51;;;;;;;1.85;0.60;;;20.10;82.90;;;;;;6303722;22;20364;-81
2023/05/13 11:55:30;;;;;;;2.03;0.40;;;20.10;84.20;;;;;;6298886;22;20211;-81
2023/05/13 11:57:57;;;;;;;2.80;0.53;;;20.00;85.00;;;;;;6301482;22;20059;-81
2023/05/13 12:00:27;;;;;;;1.85;0.73;;;19.90;86.40;;;;;;6304407;22;20025;-81
2023/05/13 12:02:53;;;;;;;1.98;0.60;;;19.80;87.30;;;;;;6304236;22;20024;-81
2023/05/13 12:05:19;;;;;;;2.03;0.98;;;19.80;88.60;;;;;;6304587;22;20010;-81
2023/05/13 12:07:48;;;;;;;0.50;0.50;;;19.90;89.90;;;;;;6304444;22;20403;-81
2023/05/13 12:10:14;;;;;;;1.02;0.60;;;19.90;90.30;;;;;;6304797;22;20654;-81
2023/05/13 12:12:42;;;;;;;0.65;0.50;;;20.20;89.40;;;;;;6304441;22;20067;-81
2023/05/13 12:15:12;;;;;;;1.15;0.65;;;20.20;89.00;;;;;;6304264;22;20388;-78
2023/05/13 12:17:37;;;;;;;3.33;0.68;;;20.20;88.40;;;;;;6304749;22;20003;-81
2023/05/13 12:20:20;;;;;;;0.93;0.40;;;20.30;88.70;;;;;;6303960;22;20007;-81
2023/05/13 12:22:53;;;;;;;0.60;0.40;;;20.60;89.70;;;;;;6304253;22;20007;-81
2023/05/13 12:25:37;;;;;;;0.38;0.30;;;21.20;89.60;;;;;;6303111;22;20060;-81
2023/05/13 12:28:07;;;;;;;1.65;0.50;;;21.90;87.70;;;;;;6303787;22;20026;-82
2023/05/13 12:30:34;;;;;;;0.95;0.30;;;22.20;86.60;;;;;;6304711;22;20007;-81
2023/05/13 12:33:04;;;;;;;1.15;0.93;;;22.70;85.30;;;;;;6303078;22;20091;-82
2023/05/13 12:35:30;;;;;;;1.98;0.60;;;23.10;84.50;;;;;;6303865;22;20014;-81
2023/05/13 12:38:15;;;;;;;1.17;0.40;;;23.50;81.20;;;;;;6303234;22;20414;-81
2023/05/13 12:40:40;;;;;;;0.35;0.25;;;24.00;79.70;;;;;;6304713;22;20005;-80
2023/05/13 12:43:09;;;;;;;0.68;0.30;;;24.10;78.40;;;;;;6305037;22;20026;-81
2023/05/13 12:45:41;;;;;;;4.38;0.80;;;24.00;76.80;;;;;;6304366;22;20007;-77
2023/05/13 12:48:07;;;;;;;1.50;0.68;;;23.90;76.70;;;;;;6307284;22;20009;-77
2023/05/13 12:50:32;;;;;;;0.52;0.30;;;24.00;76.00;;;;;;6307297;22;19999;-77